Gaultois, Canada
Current Conditions -  °F | °C
As of 7:00 PM on Wednesday 22 Oct 2014 (Local Time) from CYQX Reporting Station
Broken Clouds Broken Clouds  
Wind Chill:   Ceiling: 3900
Heat Index:   Visibility: 20mi
Dew Point:   Wind: 5mph
Humidity: 66%   Direction: 160°SSE
Pressure: 30.45"   Gusts: NA
Location:  47.6°N, 55.92°W
Report Text: CYQX 222100Z 16004KT 20SM BKN039 08/02 A3045 RMK SC7 SLP317
Loading
Personal Weather Stations






























Interactive Weather Map
Tropical Storm Tracking
New forecast layout! Learn more

10-Day Weather Forecast

Advertisements
Track Severe Weather on mobile